Garcia del Cid — EHUU — position and weather

sailwx.info

Track history (hours):
 
Tides and Currents Weather Stations Pressure Air Temp Water Temp Dewpoint Dewpoint Depression Visibility Wind Speed Wind Dir Waves Ship Positions

Oceanographic research ship Garcia del Cid (Spain)

Detailed information on ship capabilities available from University of Delaware's Ocean Information Center.

Last reported at 2019-Feb-06 16:10 UTC. Time now 2019-Feb-16 03:01 UTC.
Position N 41°22' E 002°11'.
Warning: this ship's position is 9 days out of date.

Length 30 m; draft 4.8 m.

Type: Dredging. MMSI: 224799000.

Date/timePositionNaut miles runAvg speedWind from/ knotsBaromVisibWave heightAir tempDewpointWater temp
2019-Feb-06 16:10N 41°22' E 002°11'0 1.8
2019-Feb-06 16:00N 41°22' E 002°11'4 7.1
2019-Feb-06 15:30N 41°20' E 002°15'4 8.4
2019-Feb-06 15:00N 41°19' E 002°20'2 1.0
2019-Feb-06 13:23N 41°18' E 002°22'0 0.4
2019-Feb-06 12:56N 41°18' E 002°22'2 0.9
2019-Feb-06 11:18N 41°19' E 002°20'5 7.0
2019-Feb-06 10:32N 41°22' E 002°14'0 5.7
2019-Feb-06 10:29N 41°22' E 002°14'0 0.8
2019-Feb-06 09:59N 41°22' E 002°13'1 2.6
2019-Feb-06 09:30N 41°24' E 002°14'2 3.4
2019-Feb-06 09:00N 41°22' E 002°13'1 2.1
2019-Feb-06 08:27N 41°22' E 002°11'  
2019-Feb-01 16:03N 41°23' E 002°11'0 0.0
2019-Feb-01 16:00N 41°23' E 002°11'0 0.0
2019-Feb-01 15:27N 41°23' E 002°11'0 0.0
2019-Feb-01 15:00N 41°23' E 002°11'0 0.0
2019-Feb-01 14:30N 41°23' E 002°11'0 0.0
2019-Feb-01 14:00N 41°23' E 002°11'0 0.0
2019-Feb-01 13:30N 41°23' E 002°11'0 0.0
2019-Feb-01 12:51N 41°23' E 002°11'0 0.0
2019-Feb-01 12:30N 41°23' E 002°11'0 0.0
2019-Feb-01 12:00N 41°23' E 002°11'0 0.0
2019-Feb-01 11:30N 41°23' E 002°11'  
Track history (hours):
 
Tides and Currents Weather Stations Pressure Air Temp Water Temp Dewpoint Dewpoint Depression Visibility Wind Speed Wind Dir Waves Ship Positions

Oceanographic research ship Garcia del Cid (Spain)

Detailed information on ship capabilities available from University of Delaware's Ocean Information Center.

Last reported at 2019-Feb-06 16:10 UTC. Time now 2019-Feb-16 03:01 UTC.
Position N 41°22' E 002°11'.
Warning: this ship's position is 9 days out of date.

Length 30 m; draft 4.8 m.

Type: Dredging. MMSI: 224799000.

Date/timePositionNaut miles runAvg speedWind from/ knotsBaromVisibWave heightAir tempDewpointWater temp
2019-Feb-06 16:10N 41°22' E 002°11'0 1.8
2019-Feb-06 16:00N 41°22' E 002°11'4 7.1
2019-Feb-06 15:30N 41°20' E 002°15'4 8.4
2019-Feb-06 15:00N 41°19' E 002°20'2 1.0
2019-Feb-06 13:23N 41°18' E 002°22'0 0.4
2019-Feb-06 12:56N 41°18' E 002°22'2 0.9
2019-Feb-06 11:18N 41°19' E 002°20'5 7.0
2019-Feb-06 10:32N 41°22' E 002°14'0 5.7
2019-Feb-06 10:29N 41°22' E 002°14'0 0.8
2019-Feb-06 09:59N 41°22' E 002°13'1 2.6
2019-Feb-06 09:30N 41°24' E 002°14'2 3.4
2019-Feb-06 09:00N 41°22' E 002°13'1 2.1
2019-Feb-06 08:27N 41°22' E 002°11'  
2019-Feb-01 16:03N 41°23' E 002°11'0 0.0
2019-Feb-01 16:00N 41°23' E 002°11'0 0.0
2019-Feb-01 15:27N 41°23' E 002°11'0 0.0
2019-Feb-01 15:00N 41°23' E 002°11'0 0.0
2019-Feb-01 14:30N 41°23' E 002°11'0 0.0
2019-Feb-01 14:00N 41°23' E 002°11'0 0.0
2019-Feb-01 13:30N 41°23' E 002°11'0 0.0
2019-Feb-01 12:51N 41°23' E 002°11'0 0.0
2019-Feb-01 12:30N 41°23' E 002°11'0 0.0
2019-Feb-01 12:00N 41°23' E 002°11'0 0.0
2019-Feb-01 11:30N 41°23' E 002°11'  

Dump ship's entire track history